x

Monterey - 27nm Wnw Of Monterey, Ca (46042) Wave Buoy

2:50pm - Fri 22nd May 2015 All times are PDT. -7 hours from GMT.

  • Sig Wave height 3.6ft
  • Swell Direction
  • Peak Period 11s
  • Average Period 7s
  • Wind
    11mph, 13mph gusts
  • Sea Temp 58°f
  • Air Temp 57°f
  • Sea Pressure 1018mb
  • Monterey - 27nm Wnw Of Monterey, Ca
  • Monterey - 27nm Wnw Of Monterey, Ca

More Historic Weather Station data

Upgrade to MSW Pro to gain access to the past 30 days of data for over 8000 Wavebouys and Weather Stations around the globe.

Join Pro

Comparision Forecast

View Surf forecast
   
Fri 05/22 2:50pm 3.5ft 11s 7s 11 13 mph 1018mb 58f 57f
1:50pm 3.5ft 11s 7s 11 13 mph 1018.1mb 58f 57f
12:50pm 3.5ft 10s 7s 7 9 mph 1018.1mb 58f 57f
11:50am 3.5ft 11s 7s 4 7 mph 1018.3mb 58f 56f
10:50am 3.5ft 11s 8s 4
mph
1017.8mb 57f 56f
9:50am 4ft 11s 8s 7 9 mph 1017.6mb 57f 56f
8:50am 4.5ft 11s 8s 9
mph
1017.4mb 57f 56f
7:50am 4.5ft 12s 9s 7 9 mph 1017.1mb 57f 56f
6:50am 4.5ft 12s 9s 4 7 mph 1016.7mb 57f 56f
5:50am 3.5ft 11s 8s 7
mph
1016.3mb 57f 56f
4:50am 4.5ft 12s 8s 4 7 mph 1016.1mb 57f 56f
3:50am 4ft 11s 8s 2 4 mph 1015.9mb 57f 56f
2:50am 4.5ft 12s 8s 2
mph
1016.1mb 57f 56f
1:50am 5ft 12s 9s 2 4 mph 1016.1mb 57f 56f
12:50am 4ft 13s 8s 4
mph
1016mb 57f 56f
Thu 05/21 11:50pm 4.5ft 12s 8s 4 7 mph 1016.1mb 57f 57f
10:50pm 4ft 13s 8s 7
mph
1016.1mb 58f 57f
9:50pm 4.5ft 13s 9s 9 11 mph 1015.5mb 58f 57f
8:50pm 4ft 12s 8s 9 11 mph 1015.4mb 58f 57f
7:50pm 3.5ft 12s 8s 7 9 mph 1015.3mb 58f 57f
6:50pm 3.5ft 12s 8s 7
mph
1015.1mb 58f 57f
5:50pm 4ft 13s 8s 7
mph
1015mb 58f 57f
4:50pm 3.5ft 13s 8s 9 11 mph 1014.9mb 58f 57f
3:50pm 3.5ft 13s 8s 4 7 mph 1015.3mb 58f 57f
2:50pm 3.5ft 13s 7s 9 11 mph 1015.4mb 58f 57f
1:50pm 4.5ft 13s 8s 7
mph
1015.6mb 58f 57f
12:50pm 3.5ft 13s 7s 4 7 mph 1015.7mb 57f 56f
11:50am 4.5ft 13s 8s 4
mph
1015.6mb 57f 56f
10:50am 4ft 14s 8s 4 7 mph 1015.4mb 56f 56f
9:50am 3.5ft 14s 7s 4 7 mph 1015.3mb 56f 55f
8:50am 4ft 14s 8s 2 4 mph 1015.3mb 56f 55f
7:50am 4ft 14s 7s  -  2 mph 1015.2mb 56f 55f
6:50am 3.5ft 14s 7s 4
mph
1015mb 56f 55f
5:50am 3.5ft 14s 7s 4 7 mph 1014.8mb 56f 55f
4:50am 4ft 14s 7s 4
mph
1014.6mb 56f 55f
3:50am 4ft 14s 7s 4
mph
1014.5mb 56f 55f
2:50am 4ft 14s 7s 4
mph
1014.5mb 56f 55f
1:50am 4ft 10s 7s 4
mph
1015mb 56f 55f
12:50am 3.5ft 10s 6s 7
mph
1015.3mb 56f 55f
Wed 05/20 11:50pm 4.5ft 10s 7s 7 9 mph 1015.6mb 56f 55f
10:50pm 4.5ft 11s 7s 7 9 mph 1016mb 56f 55f
9:50pm 3.5ft 11s 7s 9
mph
1015.7mb 56f 56f
8:50pm 4ft 11s 7s 9 11 mph 1015.3mb 57f 55f
7:50pm 4ft 15s 7s 11
mph
1015mb 57f 56f
6:50pm 4ft 11s 7s 9 11 mph 1014.8mb 57f 56f
5:50pm 4.5ft 10s 7s 9 11 mph 1015.1mb 57f 56f
4:50pm 4.5ft 11s 7s 9 11 mph 1015.1mb 57f 56f
3:50pm 4.5ft 7s 6s 9 11 mph 1015.5mb 56f 56f
2:50pm 4.5ft 10s 6s 7 9 mph 1015.6mb 56f 56f
1:50pm 4.5ft 11s 6s 7 9 mph 1016.1mb 56f 55f
12:50pm 4.5ft 11s 6s 7
mph
1016.8mb 55f 55f
11:50am 4.5ft 11s 7s 9 11 mph 1016.7mb 55f 54f
10:50am 4.5ft 11s 7s 9 13 mph 1016.5mb 55f 54f
9:50am 4.5ft 11s 7s 11 13 mph 1016.2mb 55f 55f
8:50am 4.5ft 11s 7s 7
mph
1016.1mb 55f 55f
7:50am 5ft 11s 7s 7
mph
1015.8mb 55f 55f
6:50am 4.5ft 11s 7s 7 9 mph 1015.4mb 55f 55f
5:50am 4.5ft 11s 7s 7 9 mph 1015.4mb 55f 55f
4:50am 5ft 11s 7s 9 11 mph 1015.5mb 55f 55f
3:50am 4.5ft 11s 7s 11 13 mph 1015.6mb 55f 55f
2:50am 5ft 11s 7s 9 13 mph 1016mb 55f 55f
1:50am 5ft 11s 7s 11 13 mph 1016.3mb 55f 55f
12:50am 5ft 11s 6s 11 16 mph 1016.6mb 55f 55f
Tue 05/19 11:50pm 5ft 11s 7s 11 13 mph 1017.1mb 55f 55f
10:50pm 5ft 11s 6s 18 22 mph 1017.2mb 56f 55f
9:50pm 5.5ft 11s 7s 16 18 mph 1017.1mb 56f 55f
8:50pm 5ft 12s 7s 18 20 mph 1016.9mb 56f 55f
7:50pm 5ft 11s 7s 16 20 mph 1017mb 56f 55f
6:50pm 5ft 12s 6s 16 20 mph 1017.1mb 56f 55f
5:50pm 5.5ft 11s 7s 16 18 mph 1017.8mb 56f 56f
4:50pm 5ft 12s 7s 13 16 mph 1018.2mb 56f 56f
3:50pm 5ft 12s 7s 13 16 mph 1018.8mb 56f 55f
2:50pm 5ft 11s 7s 9 11 mph 1019.7mb 55f 55f
1:50pm 5ft 12s 8s 7 9 mph 1020mb 55f 56f
12:50pm 5ft 12s 7s 9
mph
1020.3mb 55f 55f
11:50am 5ft 12s 7s 9 11 mph 1020.7mb 54f 55f
10:50am 5ft 12s 7s 13 16 mph 1020.6mb 54f 55f
9:50am 5ft 11s 7s 13 18 mph 1020.7mb 54f 55f
8:50am 5ft 12s 7s 13 16 mph 1020.7mb 54f 55f
7:50am 5ft 13s 7s 11 13 mph 1020.5mb 54f 55f
6:50am 5ft 13s 8s 11 16 mph 1020.4mb 54f 55f
5:50am 5ft 12s 7s 11
mph
1020mb 54f 55f
4:50am 5ft 12s 8s 9 13 mph 1020.1mb 54f 55f
3:50am 4.5ft 13s 7s 11 13 mph 1019.9mb 54f 55f
2:50am 5ft 12s 7s 11 16 mph 1020mb 54f 55f
1:50am 4.5ft 13s 7s 9 11 mph 1020.3mb 55f 55f
12:50am 5ft 13s 7s 13 16 mph 1020.5mb 55f 55f
Mon 05/18 11:50pm 5ft 13s 7s 13 16 mph 1020.6mb 55f 55f
10:50pm 5ft 13s 7s 11 13 mph 1021mb 55f 55f